sensor_id;sensor_type;location;lat;lon;timestamp;temperature;humidity
22813;DHT22;11573;51.334;3.244;2022-10-17T00:00:45;14.80;99.90
22813;DHT22;11573;51.334;3.244;2022-10-17T00:03:12;14.80;99.90
22813;DHT22;11573;51.334;3.244;2022-10-17T00:05:40;14.80;99.90
22813;DHT22;11573;51.334;3.244;2022-10-17T00:08:09;14.80;99.90
22813;DHT22;11573;51.334;3.244;2022-10-17T00:10:36;14.80;99.90
22813;DHT22;11573;51.334;3.244;2022-10-17T00:13:04;14.90;99.90
22813;DHT22;11573;51.334;3.244;2022-10-17T00:15:31;14.90;99.90
22813;DHT22;11573;51.334;3.244;2022-10-17T00:18:00;14.90;99.90
22813;DHT22;11573;51.334;3.244;2022-10-17T00:20:27;15.00;99.90
22813;DHT22;11573;51.334;3.244;2022-10-17T00:22:56;15.00;99.90
22813;DHT22;11573;51.334;3.244;2022-10-17T00:25:23;15.00;99.90
22813;DHT22;11573;51.334;3.244;2022-10-17T00:27:49;15.00;99.90
22813;DHT22;11573;51.334;3.244;2022-10-17T00:30:16;15.00;99.90
22813;DHT22;11573;51.334;3.244;2022-10-17T00:32:44;15.00;99.90
22813;DHT22;11573;51.334;3.244;2022-10-17T00:35:11;15.00;99.90
22813;DHT22;11573;51.334;3.244;2022-10-17T00:37:38;15.00;99.90
22813;DHT22;11573;51.334;3.244;2022-10-17T00:40:05;15.10;99.90
22813;DHT22;11573;51.334;3.244;2022-10-17T00:42:33;15.20;99.90
22813;DHT22;11573;51.334;3.244;2022-10-17T00:45:28;15.20;99.90
22813;DHT22;11573;51.334;3.244;2022-10-17T00:48:04;15.20;99.90
22813;DHT22;11573;51.334;3.244;2022-10-17T00:50:35;15.30;99.90
22813;DHT22;11573;51.334;3.244;2022-10-17T00:53:08;15.30;99.90
22813;DHT22;11573;51.334;3.244;2022-10-17T00:55:41;15.30;99.90
22813;DHT22;11573;51.334;3.244;2022-10-17T00:58:09;15.40;99.90
22813;DHT22;11573;51.334;3.244;2022-10-17T01:00:36;15.40;99.90
22813;DHT22;11573;51.334;3.244;2022-10-17T01:03:03;15.40;99.90
22813;DHT22;11573;51.334;3.244;2022-10-17T01:05:31;15.50;99.90
22813;DHT22;11573;51.334;3.244;2022-10-17T01:07:58;15.50;99.90
22813;DHT22;11573;51.334;3.244;2022-10-17T01:10:31;15.50;99.90
22813;DHT22;11573;51.334;3.244;2022-10-17T01:13:22;15.60;99.90
22813;DHT22;11573;51.334;3.244;2022-10-17T01:18:47;15.70;99.90
22813;DHT22;11573;51.334;3.244;2022-10-17T01:22:05;15.80;99.90
22813;DHT22;11573;51.334;3.244;2022-10-17T01:24:54;16.00;99.90
22813;DHT22;11573;51.334;3.244;2022-10-17T01:33:03;16.10;99.90
22813;DHT22;11573;51.334;3.244;2022-10-17T01:41:23;16.10;99.90
22813;DHT22;11573;51.334;3.244;2022-10-17T01:44:31;16.10;99.90
22813;DHT22;11573;51.334;3.244;2022-10-17T01:46:49;16.20;99.90
22813;DHT22;11573;51.334;3.244;2022-10-17T01:49:21;16.20;99.90
22813;DHT22;11573;51.334;3.244;2022-10-17T01:52:03;16.20;99.90
22813;DHT22;11573;51.334;3.244;2022-10-17T01:55:02;16.20;99.90
22813;DHT22;11573;51.334;3.244;2022-10-17T01:57:40;16.20;99.90
22813;DHT22;11573;51.334;3.244;2022-10-17T02:00:12;16.20;99.90
22813;DHT22;11573;51.334;3.244;2022-10-17T02:02:42;16.20;99.90
22813;DHT22;11573;51.334;3.244;2022-10-17T02:05:10;16.20;99.90
22813;DHT22;11573;51.334;3.244;2022-10-17T02:07:40;16.20;99.90
22813;DHT22;11573;51.334;3.244;2022-10-17T02:10:18;16.20;99.90
22813;DHT22;11573;51.334;3.244;2022-10-17T02:23:58;16.30;99.90
22813;DHT22;11573;51.334;3.244;2022-10-17T02:26:33;16.30;99.90
22813;DHT22;11573;51.334;3.244;2022-10-17T02:29:12;16.30;99.90
22813;DHT22;11573;51.334;3.244;2022-10-17T02:31:57;16.40;99.90
22813;DHT22;11573;51.334;3.244;2022-10-17T02:34:38;16.30;99.90
22813;DHT22;11573;51.334;3.244;2022-10-17T02:37:08;16.30;99.90
22813;DHT22;11573;51.334;3.244;2022-10-17T02:39:38;16.30;99.90
22813;DHT22;11573;51.334;3.244;2022-10-17T02:42:08;16.40;99.90
22813;DHT22;11573;51.334;3.244;2022-10-17T02:44:58;16.30;99.90
22813;DHT22;11573;51.334;3.244;2022-10-17T02:48:11;16.30;99.90
22813;DHT22;11573;51.334;3.244;2022-10-17T02:50:24;16.40;99.90
22813;DHT22;11573;51.334;3.244;2022-10-17T02:53:05;16.40;99.90
22813;DHT22;11573;51.334;3.244;2022-10-17T02:55:42;16.40;99.90
22813;DHT22;11573;51.334;3.244;2022-10-17T02:58:17;16.30;99.90
22813;DHT22;11573;51.334;3.244;2022-10-17T03:00:47;16.40;99.90
22813;DHT22;11573;51.334;3.244;2022-10-17T03:03:22;16.40;99.90
22813;DHT22;11573;51.334;3.244;2022-10-17T03:05:50;16.40;99.90
22813;DHT22;11573;51.334;3.244;2022-10-17T03:08:21;16.50;99.90
22813;DHT22;11573;51.334;3.244;2022-10-17T03:10:48;16.50;99.90
22813;DHT22;11573;51.334;3.244;2022-10-17T03:13:37;16.60;99.90
22813;DHT22;11573;51.334;3.244;2022-10-17T03:16:06;16.70;99.90
22813;DHT22;11573;51.334;3.244;2022-10-17T03:18:33;16.80;99.90
22813;DHT22;11573;51.334;3.244;2022-10-17T03:21:01;16.80;99.90
22813;DHT22;11573;51.334;3.244;2022-10-17T03:23:28;16.90;99.90
22813;DHT22;11573;51.334;3.244;2022-10-17T03:25:56;16.90;99.90
22813;DHT22;11573;51.334;3.244;2022-10-17T03:28:23;16.90;99.90
22813;DHT22;11573;51.334;3.244;2022-10-17T03:30:50;17.00;99.90
22813;DHT22;11573;51.334;3.244;2022-10-17T03:33:17;17.00;99.90
22813;DHT22;11573;51.334;3.244;2022-10-17T03:35:44;17.00;99.90
22813;DHT22;11573;51.334;3.244;2022-10-17T03:38:12;17.10;99.90
22813;DHT22;11573;51.334;3.244;2022-10-17T03:40:39;17.10;99.90
22813;DHT22;11573;51.334;3.244;2022-10-17T03:43:06;17.10;99.90
22813;DHT22;11573;51.334;3.244;2022-10-17T03:45:33;17.10;99.90
22813;DHT22;11573;51.334;3.244;2022-10-17T03:48:00;17.00;99.90
22813;DHT22;11573;51.334;3.244;2022-10-17T03:50:28;17.00;99.90
22813;DHT22;11573;51.334;3.244;2022-10-17T03:52:56;17.00;99.90
22813;DHT22;11573;51.334;3.244;2022-10-17T03:55:23;16.90;99.90
22813;DHT22;11573;51.334;3.244;2022-10-17T03:57:50;16.90;99.90
22813;DHT22;11573;51.334;3.244;2022-10-17T04:00:19;17.00;99.90
22813;DHT22;11573;51.334;3.244;2022-10-17T04:02:53;17.00;99.90
22813;DHT22;11573;51.334;3.244;2022-10-17T04:05:20;17.10;99.90
22813;DHT22;11573;51.334;3.244;2022-10-17T04:07:47;17.10;99.90
22813;DHT22;11573;51.334;3.244;2022-10-17T04:10:16;17.10;99.90
22813;DHT22;11573;51.334;3.244;2022-10-17T04:12:43;17.20;99.90
22813;DHT22;11573;51.334;3.244;2022-10-17T04:15:10;17.20;99.90
22813;DHT22;11573;51.334;3.244;2022-10-17T04:17:37;17.20;99.90
22813;DHT22;11573;51.334;3.244;2022-10-17T04:20:06;17.20;99.90
22813;DHT22;11573;51.334;3.244;2022-10-17T04:22:33;17.20;99.90
22813;DHT22;11573;51.334;3.244;2022-10-17T04:25:02;17.20;99.90
22813;DHT22;11573;51.334;3.244;2022-10-17T04:27:34;17.10;99.90
22813;DHT22;11573;51.334;3.244;2022-10-17T04:30:01;17.10;99.90
22813;DHT22;11573;51.334;3.244;2022-10-17T04:32:30;17.10;99.90
22813;DHT22;11573;51.334;3.244;2022-10-17T04:35:02;17.10;99.90
22813;DHT22;11573;51.334;3.244;2022-10-17T04:37:30;17.10;99.90
22813;DHT22;11573;51.334;3.244;2022-10-17T04:40:00;17.20;99.90
22813;DHT22;11573;51.334;3.244;2022-10-17T04:42:30;17.10;99.90
22813;DHT22;11573;51.334;3.244;2022-10-17T04:44:58;17.10;99.90
22813;DHT22;11573;51.334;3.244;2022-10-17T04:47:25;17.10;99.90
22813;DHT22;11573;51.334;3.244;2022-10-17T04:49:54;17.10;99.90
22813;DHT22;11573;51.334;3.244;2022-10-17T04:52:21;17.10;99.90
22813;DHT22;11573;51.334;3.244;2022-10-17T04:54:49;17.10;99.90
22813;DHT22;11573;51.334;3.244;2022-10-17T04:57:17;17.10;99.90
22813;DHT22;11573;51.334;3.244;2022-10-17T05:00:03;17.20;99.90
22813;DHT22;11573;51.334;3.244;2022-10-17T05:02:49;17.20;99.90
22813;DHT22;11573;51.334;3.244;2022-10-17T05:05:16;17.20;99.90
22813;DHT22;11573;51.334;3.244;2022-10-17T05:07:45;17.20;99.90
22813;DHT22;11573;51.334;3.244;2022-10-17T05:10:16;17.20;99.90
22813;DHT22;11573;51.334;3.244;2022-10-17T05:12:47;17.20;99.90
22813;DHT22;11573;51.334;3.244;2022-10-17T05:15:16;17.20;99.90
22813;DHT22;11573;51.334;3.244;2022-10-17T05:17:43;17.20;99.90
22813;DHT22;11573;51.334;3.244;2022-10-17T05:20:10;17.20;99.90
22813;DHT22;11573;51.334;3.244;2022-10-17T05:22:38;17.20;99.90
22813;DHT22;11573;51.334;3.244;2022-10-17T05:25:09;17.30;99.90
22813;DHT22;11573;51.334;3.244;2022-10-17T05:27:36;17.30;99.90
22813;DHT22;11573;51.334;3.244;2022-10-17T05:30:04;17.30;99.90
22813;DHT22;11573;51.334;3.244;2022-10-17T05:32:34;17.30;99.90
22813;DHT22;11573;51.334;3.244;2022-10-17T05:35:01;17.30;99.90
22813;DHT22;11573;51.334;3.244;2022-10-17T05:37:30;17.40;99.90
22813;DHT22;11573;51.334;3.244;2022-10-17T05:39:58;17.40;99.90
22813;DHT22;11573;51.334;3.244;2022-10-17T05:42:26;17.40;99.90
22813;DHT22;11573;51.334;3.244;2022-10-17T05:44:54;17.50;99.90
22813;DHT22;11573;51.334;3.244;2022-10-17T05:47:21;17.40;99.90
22813;DHT22;11573;51.334;3.244;2022-10-17T05:49:48;17.40;99.90
22813;DHT22;11573;51.334;3.244;2022-10-17T05:52:24;17.40;99.90
22813;DHT22;11573;51.334;3.244;2022-10-17T05:54:59;17.30;99.90
22813;DHT22;11573;51.334;3.244;2022-10-17T05:57:26;17.30;99.90
22813;DHT22;11573;51.334;3.244;2022-10-17T05:59:53;17.30;99.90
22813;DHT22;11573;51.334;3.244;2022-10-17T06:02:20;17.20;99.90
22813;DHT22;11573;51.334;3.244;2022-10-17T06:04:48;17.20;99.90
22813;DHT22;11573;51.334;3.244;2022-10-17T06:07:18;17.20;99.90
22813;DHT22;11573;51.334;3.244;2022-10-17T06:09:46;17.20;99.90
22813;DHT22;11573;51.334;3.244;2022-10-17T06:12:13;17.20;99.90
22813;DHT22;11573;51.334;3.244;2022-10-17T06:14:41;17.20;99.90
22813;DHT22;11573;51.334;3.244;2022-10-17T06:17:10;17.20;99.90
22813;DHT22;11573;51.334;3.244;2022-10-17T06:19:42;17.30;99.90
22813;DHT22;11573;51.334;3.244;2022-10-17T06:22:12;17.30;99.90
22813;DHT22;11573;51.334;3.244;2022-10-17T06:24:39;17.20;99.90
22813;DHT22;11573;51.334;3.244;2022-10-17T06:27:07;17.20;99.90
22813;DHT22;11573;51.334;3.244;2022-10-17T06:29:37;17.20;99.90
22813;DHT22;11573;51.334;3.244;2022-10-17T06:32:05;17.10;99.90
22813;DHT22;11573;51.334;3.244;2022-10-17T06:34:39;17.10;99.90
22813;DHT22;11573;51.334;3.244;2022-10-17T06:37:06;17.10;99.90
22813;DHT22;11573;51.334;3.244;2022-10-17T06:39:35;17.00;99.90
22813;DHT22;11573;51.334;3.244;2022-10-17T06:42:06;17.00;99.90
22813;DHT22;11573;51.334;3.244;2022-10-17T06:44:44;17.00;99.90
22813;DHT22;11573;51.334;3.244;2022-10-17T06:47:30;16.90;99.90
22813;DHT22;11573;51.334;3.244;2022-10-17T06:50:04;16.90;99.90
22813;DHT22;11573;51.334;3.244;2022-10-17T06:52:54;16.90;99.90
22813;DHT22;11573;51.334;3.244;2022-10-17T06:55:39;16.90;99.90
22813;DHT22;11573;51.334;3.244;2022-10-17T06:58:31;16.90;99.90
22813;DHT22;11573;51.334;3.244;2022-10-17T07:01:09;16.90;99.90
22813;DHT22;11573;51.334;3.244;2022-10-17T07:03:38;16.80;99.90
22813;DHT22;11573;51.334;3.244;2022-10-17T07:06:06;16.80;99.90
22813;DHT22;11573;51.334;3.244;2022-10-17T07:08:33;16.80;99.90
22813;DHT22;11573;51.334;3.244;2022-10-17T07:11:12;16.80;99.90
22813;DHT22;11573;51.334;3.244;2022-10-17T07:13:41;16.80;99.90
22813;DHT22;11573;51.334;3.244;2022-10-17T07:16:08;16.80;99.90
22813;DHT22;11573;51.334;3.244;2022-10-17T07:18:38;16.80;99.90
22813;DHT22;11573;51.334;3.244;2022-10-17T07:21:06;16.80;99.90
22813;DHT22;11573;51.334;3.244;2022-10-17T07:23:35;16.80;99.90
22813;DHT22;11573;51.334;3.244;2022-10-17T07:26:06;16.80;99.90
22813;DHT22;11573;51.334;3.244;2022-10-17T07:28:38;16.80;99.90
22813;DHT22;11573;51.334;3.244;2022-10-17T07:31:20;16.90;99.90
22813;DHT22;11573;51.334;3.244;2022-10-17T07:33:48;16.90;99.90
22813;DHT22;11573;51.334;3.244;2022-10-17T07:36:16;16.90;99.90
22813;DHT22;11573;51.334;3.244;2022-10-17T07:38:43;16.90;99.90
22813;DHT22;11573;51.334;3.244;2022-10-17T07:41:11;16.90;99.90
22813;DHT22;11573;51.334;3.244;2022-10-17T07:43:45;16.90;99.90
22813;DHT22;11573;51.334;3.244;2022-10-17T07:46:14;17.00;99.90
22813;DHT22;11573;51.334;3.244;2022-10-17T07:48:42;16.90;99.90
22813;DHT22;11573;51.334;3.244;2022-10-17T07:51:09;17.00;99.90
22813;DHT22;11573;51.334;3.244;2022-10-17T07:53:37;17.00;99.90
22813;DHT22;11573;51.334;3.244;2022-10-17T07:56:08;17.00;99.90
22813;DHT22;11573;51.334;3.244;2022-10-17T07:58:35;17.00;99.90
22813;DHT22;11573;51.334;3.244;2022-10-17T08:01:05;17.10;99.90
22813;DHT22;11573;51.334;3.244;2022-10-17T08:03:36;17.10;99.90
22813;DHT22;11573;51.334;3.244;2022-10-17T08:06:03;17.10;99.90
22813;DHT22;11573;51.334;3.244;2022-10-17T08:08:30;17.10;99.90
22813;DHT22;11573;51.334;3.244;2022-10-17T08:11:05;17.00;99.90
22813;DHT22;11573;51.334;3.244;2022-10-17T08:13:33;17.00;99.90
22813;DHT22;11573;51.334;3.244;2022-10-17T08:16:06;17.00;99.90
22813;DHT22;11573;51.334;3.244;2022-10-17T08:18:34;17.00;99.90
22813;DHT22;11573;51.334;3.244;2022-10-17T08:21:03;17.00;99.90
22813;DHT22;11573;51.334;3.244;2022-10-17T08:23:31;17.00;99.90
22813;DHT22;11573;51.334;3.244;2022-10-17T08:25:59;17.00;99.90
22813;DHT22;11573;51.334;3.244;2022-10-17T08:28:26;17.00;99.90
22813;DHT22;11573;51.334;3.244;2022-10-17T08:31:10;17.00;99.90
22813;DHT22;11573;51.334;3.244;2022-10-17T08:33:38;17.00;99.90
22813;DHT22;11573;51.334;3.244;2022-10-17T08:36:06;17.00;99.90
22813;DHT22;11573;51.334;3.244;2022-10-17T08:38:35;17.00;99.90
22813;DHT22;11573;51.334;3.244;2022-10-17T08:41:29;17.10;99.90
22813;DHT22;11573;51.334;3.244;2022-10-17T08:47:04;17.10;99.90
22813;DHT22;11573;51.334;3.244;2022-10-17T08:49:46;17.10;99.90
22813;DHT22;11573;51.334;3.244;2022-10-17T08:52:31;17.00;99.90
22813;DHT22;11573;51.334;3.244;2022-10-17T08:54:58;16.90;99.90
22813;DHT22;11573;51.334;3.244;2022-10-17T08:57:25;16.80;99.90
22813;DHT22;11573;51.334;3.244;2022-10-17T08:59:54;16.70;99.90
22813;DHT22;11573;51.334;3.244;2022-10-17T09:08:07;16.70;99.90
22813;DHT22;11573;51.334;3.244;2022-10-17T09:13:42;16.80;99.90
22813;DHT22;11573;51.334;3.244;2022-10-17T09:19:20;16.70;99.90
22813;DHT22;11573;51.334;3.244;2022-10-17T09:21:58;16.70;99.90
22813;DHT22;11573;51.334;3.244;2022-10-17T09:33:18;17.00;99.90
22813;DHT22;11573;51.334;3.244;2022-10-17T09:36:03;17.30;99.90
22813;DHT22;11573;51.334;3.244;2022-10-17T09:38:42;17.70;99.90
22813;DHT22;11573;51.334;3.244;2022-10-17T09:41:43;17.80;99.90
22813;DHT22;11573;51.334;3.244;2022-10-17T09:44:46;18.00;99.90
22813;DHT22;11573;51.334;3.244;2022-10-17T09:47:33;17.90;99.90
22813;DHT22;11573;51.334;3.244;2022-10-17T09:50:19;17.70;99.90
22813;DHT22;11573;51.334;3.244;2022-10-17T09:52:48;17.70;99.90
22813;DHT22;11573;51.334;3.244;2022-10-17T09:55:28;17.60;99.90
22813;DHT22;11573;51.334;3.244;2022-10-17T09:58:02;17.70;99.90
22813;DHT22;11573;51.334;3.244;2022-10-17T10:00:41;17.80;99.90
22813;DHT22;11573;51.334;3.244;2022-10-17T10:05:39;18.00;99.90
22813;DHT22;11573;51.334;3.244;2022-10-17T10:08:16;18.20;99.90
22813;DHT22;11573;51.334;3.244;2022-10-17T10:10:43;18.30;99.90
22813;DHT22;11573;51.334;3.244;2022-10-17T10:15:46;18.60;99.90
22813;DHT22;11573;51.334;3.244;2022-10-17T10:23:28;18.80;99.90
22813;DHT22;11573;51.334;3.244;2022-10-17T10:25:57;18.80;99.90
22813;DHT22;11573;51.334;3.244;2022-10-17T10:28:31;18.90;99.90
22813;DHT22;11573;51.334;3.244;2022-10-17T10:31:02;19.00;99.90
22813;DHT22;11573;51.334;3.244;2022-10-17T10:33:32;19.00;99.90
22813;DHT22;11573;51.334;3.244;2022-10-17T10:36:02;19.10;99.90
22813;DHT22;11573;51.334;3.244;2022-10-17T10:38:31;19.10;99.90
22813;DHT22;11573;51.334;3.244;2022-10-17T10:41:07;19.20;99.90
22813;DHT22;11573;51.334;3.244;2022-10-17T10:43:44;19.30;99.90
22813;DHT22;11573;51.334;3.244;2022-10-17T10:46:23;19.40;99.90
22813;DHT22;11573;51.334;3.244;2022-10-17T10:51:42;19.60;99.90
22813;DHT22;11573;51.334;3.244;2022-10-17T10:54:22;19.90;99.90
22813;DHT22;11573;51.334;3.244;2022-10-17T10:56:53;20.10;99.90
22813;DHT22;11573;51.334;3.244;2022-10-17T11:02:20;20.00;99.90
22813;DHT22;11573;51.334;3.244;2022-10-17T11:04:56;19.70;99.90
22813;DHT22;11573;51.334;3.244;2022-10-17T11:08:03;19.40;99.90
22813;DHT22;11573;51.334;3.244;2022-10-17T11:13:32;19.20;99.90
22813;DHT22;11573;51.334;3.244;2022-10-17T11:19:40;19.30;99.90
22813;DHT22;11573;51.334;3.244;2022-10-17T11:21:42;19.20;99.90
22813;DHT22;11573;51.334;3.244;2022-10-17T11:24:28;19.20;99.90
22813;DHT22;11573;51.334;3.244;2022-10-17T11:27:03;19.10;99.90
22813;DHT22;11573;51.334;3.244;2022-10-17T11:29:33;19.10;99.90
22813;DHT22;11573;51.334;3.244;2022-10-17T11:32:14;19.10;99.90
22813;DHT22;11573;51.334;3.244;2022-10-17T11:34:46;19.20;99.90
22813;DHT22;11573;51.334;3.244;2022-10-17T11:37:19;19.20;99.90
22813;DHT22;11573;51.334;3.244;2022-10-17T11:39:59;19.20;99.90
22813;DHT22;11573;51.334;3.244;2022-10-17T11:42:38;19.40;99.90
22813;DHT22;11573;51.334;3.244;2022-10-17T11:45:12;19.50;99.90
22813;DHT22;11573;51.334;3.244;2022-10-17T11:47:47;19.70;99.90
22813;DHT22;11573;51.334;3.244;2022-10-17T11:53:10;19.60;99.90
22813;DHT22;11573;51.334;3.244;2022-10-17T11:55:39;19.50;99.90
22813;DHT22;11573;51.334;3.244;2022-10-17T12:11:55;19.30;99.90
22813;DHT22;11573;51.334;3.244;2022-10-17T12:14:42;19.40;99.90
22813;DHT22;11573;51.334;3.244;2022-10-17T12:19:51;19.40;99.90
22813;DHT22;11573;51.334;3.244;2022-10-17T12:22:20;19.30;99.90
22813;DHT22;11573;51.334;3.244;2022-10-17T12:30:25;19.30;99.90
22813;DHT22;11573;51.334;3.244;2022-10-17T12:33:02;19.10;99.90
22813;DHT22;11573;51.334;3.244;2022-10-17T12:35:35;19.30;99.90
22813;DHT22;11573;51.334;3.244;2022-10-17T12:38:21;19.30;99.90
22813;DHT22;11573;51.334;3.244;2022-10-17T12:40:55;19.30;99.90
22813;DHT22;11573;51.334;3.244;2022-10-17T12:46:00;19.30;99.90
22813;DHT22;11573;51.334;3.244;2022-10-17T12:54:00;19.60;99.90
22813;DHT22;11573;51.334;3.244;2022-10-17T12:56:42;19.70;99.90
22813;DHT22;11573;51.334;3.244;2022-10-17T12:59:23;19.70;99.90
22813;DHT22;11573;51.334;3.244;2022-10-17T13:01:58;19.70;99.90
22813;DHT22;11573;51.334;3.244;2022-10-17T13:04:26;19.80;99.90
22813;DHT22;11573;51.334;3.244;2022-10-17T13:06:58;19.90;99.90
22813;DHT22;11573;51.334;3.244;2022-10-17T13:09:36;19.90;99.90
22813;DHT22;11573;51.334;3.244;2022-10-17T13:12:11;20.00;99.90
22813;DHT22;11573;51.334;3.244;2022-10-17T13:14:40;19.90;99.90
22813;DHT22;11573;51.334;3.244;2022-10-17T13:17:23;20.10;99.90
22813;DHT22;11573;51.334;3.244;2022-10-17T13:19:51;20.10;99.90
22813;DHT22;11573;51.334;3.244;2022-10-17T13:22:25;20.20;99.90
22813;DHT22;11573;51.334;3.244;2022-10-17T13:25:15;20.30;99.90
22813;DHT22;11573;51.334;3.244;2022-10-17T13:27:42;20.30;99.90
22813;DHT22;11573;51.334;3.244;2022-10-17T13:30:32;20.20;99.90
22813;DHT22;11573;51.334;3.244;2022-10-17T13:33:00;20.30;99.90
22813;DHT22;11573;51.334;3.244;2022-10-17T13:35:33;20.40;99.90
22813;DHT22;11573;51.334;3.244;2022-10-17T13:38:26;20.30;99.90
22813;DHT22;11573;51.334;3.244;2022-10-17T13:40:54;20.40;99.90
22813;DHT22;11573;51.334;3.244;2022-10-17T13:43:41;20.20;99.90
22813;DHT22;11573;51.334;3.244;2022-10-17T13:46:27;20.00;99.90
22813;DHT22;11573;51.334;3.244;2022-10-17T13:51:54;20.00;99.90
22813;DHT22;11573;51.334;3.244;2022-10-17T13:57:01;20.00;99.90
22813;DHT22;11573;51.334;3.244;2022-10-17T13:59:36;20.10;99.90
22813;DHT22;11573;51.334;3.244;2022-10-17T14:02:04;20.00;99.90
22813;DHT22;11573;51.334;3.244;2022-10-17T14:04:38;20.00;99.90
22813;DHT22;11573;51.334;3.244;2022-10-17T14:07:33;20.00;99.90
22813;DHT22;11573;51.334;3.244;2022-10-17T14:10:33;20.00;99.90
22813;DHT22;11573;51.334;3.244;2022-10-17T14:13:02;20.10;99.90
22813;DHT22;11573;51.334;3.244;2022-10-17T14:15:33;20.10;99.90
22813;DHT22;11573;51.334;3.244;2022-10-17T14:18:06;20.00;99.90
22813;DHT22;11573;51.334;3.244;2022-10-17T14:20:35;20.00;99.90
22813;DHT22;11573;51.334;3.244;2022-10-17T14:28:37;19.80;99.90
22813;DHT22;11573;51.334;3.244;2022-10-17T14:31:27;19.70;99.90
22813;DHT22;11573;51.334;3.244;2022-10-17T14:33:55;19.50;99.90
22813;DHT22;11573;51.334;3.244;2022-10-17T14:36:37;19.30;99.90
22813;DHT22;11573;51.334;3.244;2022-10-17T14:39:07;19.30;99.90
22813;DHT22;11573;51.334;3.244;2022-10-17T14:41:42;19.30;99.90
22813;DHT22;11573;51.334;3.244;2022-10-17T14:44:30;19.30;99.90
22813;DHT22;11573;51.334;3.244;2022-10-17T14:47:16;19.40;99.90
22813;DHT22;11573;51.334;3.244;2022-10-17T14:50:28;19.40;99.90
22813;DHT22;11573;51.334;3.244;2022-10-17T14:55:29;19.40;99.90
22813;DHT22;11573;51.334;3.244;2022-10-17T14:57:56;19.40;99.90
22813;DHT22;11573;51.334;3.244;2022-10-17T15:00:24;19.30;99.90
22813;DHT22;11573;51.334;3.244;2022-10-17T15:02:53;19.30;99.90
22813;DHT22;11573;51.334;3.244;2022-10-17T15:05:20;19.30;99.90
22813;DHT22;11573;51.334;3.244;2022-10-17T15:07:48;19.20;99.90
22813;DHT22;11573;51.334;3.244;2022-10-17T15:10:32;19.20;99.90
22813;DHT22;11573;51.334;3.244;2022-10-17T15:13:00;19.20;99.90
22813;DHT22;11573;51.334;3.244;2022-10-17T15:15:47;19.20;99.90
22813;DHT22;11573;51.334;3.244;2022-10-17T15:18:17;19.20;99.90
22813;DHT22;11573;51.334;3.244;2022-10-17T15:20:44;19.20;99.90
22813;DHT22;11573;51.334;3.244;2022-10-17T15:23:11;19.10;99.90
22813;DHT22;11573;51.334;3.244;2022-10-17T15:25:38;19.10;99.90
22813;DHT22;11573;51.334;3.244;2022-10-17T15:28:05;19.00;99.90
22813;DHT22;11573;51.334;3.244;2022-10-17T15:30:34;19.00;99.90
22813;DHT22;11573;51.334;3.244;2022-10-17T15:33:02;19.10;99.90
22813;DHT22;11573;51.334;3.244;2022-10-17T15:35:29;19.00;99.90
22813;DHT22;11573;51.334;3.244;2022-10-17T15:37:56;19.10;99.90
22813;DHT22;11573;51.334;3.244;2022-10-17T15:40:26;19.00;99.90
22813;DHT22;11573;51.334;3.244;2022-10-17T15:42:55;18.90;99.90
22813;DHT22;11573;51.334;3.244;2022-10-17T15:45:23;18.80;99.90
22813;DHT22;11573;51.334;3.244;2022-10-17T15:47:53;18.80;99.90
22813;DHT22;11573;51.334;3.244;2022-10-17T15:50:20;18.70;99.90
22813;DHT22;11573;51.334;3.244;2022-10-17T15:52:48;18.60;99.90
22813;DHT22;11573;51.334;3.244;2022-10-17T15:55:17;18.70;99.90
22813;DHT22;11573;51.334;3.244;2022-10-17T15:57:45;18.70;99.90
22813;DHT22;11573;51.334;3.244;2022-10-17T16:00:30;18.60;99.90
22813;DHT22;11573;51.334;3.244;2022-10-17T16:02:57;18.60;99.90
22813;DHT22;11573;51.334;3.244;2022-10-17T16:05:25;18.60;99.90
22813;DHT22;11573;51.334;3.244;2022-10-17T16:07:52;18.50;99.90
22813;DHT22;11573;51.334;3.244;2022-10-17T16:10:20;18.40;99.90
22813;DHT22;11573;51.334;3.244;2022-10-17T16:12:47;18.40;99.90
22813;DHT22;11573;51.334;3.244;2022-10-17T16:15:26;18.30;99.90
22813;DHT22;11573;51.334;3.244;2022-10-17T16:17:55;18.20;99.90
22813;DHT22;11573;51.334;3.244;2022-10-17T16:20:23;18.10;99.90
22813;DHT22;11573;51.334;3.244;2022-10-17T16:22:52;18.00;99.90
22813;DHT22;11573;51.334;3.244;2022-10-17T16:25:27;17.90;99.90
22813;DHT22;11573;51.334;3.244;2022-10-17T16:27:55;17.90;99.90
22813;DHT22;11573;51.334;3.244;2022-10-17T16:30:24;17.80;99.90
22813;DHT22;11573;51.334;3.244;2022-10-17T16:32:52;17.70;99.90
22813;DHT22;11573;51.334;3.244;2022-10-17T16:35:28;17.60;99.90
22813;DHT22;11573;51.334;3.244;2022-10-17T16:38:03;17.60;99.90
22813;DHT22;11573;51.334;3.244;2022-10-17T16:40:29;17.50;99.90
22813;DHT22;11573;51.334;3.244;2022-10-17T16:42:56;17.40;99.90
22813;DHT22;11573;51.334;3.244;2022-10-17T16:45:23;17.40;99.90
22813;DHT22;11573;51.334;3.244;2022-10-17T16:47:50;17.30;99.90
22813;DHT22;11573;51.334;3.244;2022-10-17T16:50:18;17.30;99.90
22813;DHT22;11573;51.334;3.244;2022-10-17T16:52:45;17.30;99.90
22813;DHT22;11573;51.334;3.244;2022-10-17T16:55:12;17.20;99.90
22813;DHT22;11573;51.334;3.244;2022-10-17T16:57:42;17.10;99.90
22813;DHT22;11573;51.334;3.244;2022-10-17T17:00:14;17.10;99.90
22813;DHT22;11573;51.334;3.244;2022-10-17T17:02:42;17.10;99.90
22813;DHT22;11573;51.334;3.244;2022-10-17T17:05:09;17.00;99.90
22813;DHT22;11573;51.334;3.244;2022-10-17T17:07:36;17.00;99.90
22813;DHT22;11573;51.334;3.244;2022-10-17T17:10:04;17.00;99.90
22813;DHT22;11573;51.334;3.244;2022-10-17T17:12:33;16.90;99.90
22813;DHT22;11573;51.334;3.244;2022-10-17T17:15:01;16.90;99.90
22813;DHT22;11573;51.334;3.244;2022-10-17T17:17:28;16.80;99.90
22813;DHT22;11573;51.334;3.244;2022-10-17T17:20:13;16.70;99.90
22813;DHT22;11573;51.334;3.244;2022-10-17T17:22:40;16.80;99.90
22813;DHT22;11573;51.334;3.244;2022-10-17T17:25:07;16.90;99.90
22813;DHT22;11573;51.334;3.244;2022-10-17T17:27:34;16.90;99.90
22813;DHT22;11573;51.334;3.244;2022-10-17T17:30:01;16.90;99.90
22813;DHT22;11573;51.334;3.244;2022-10-17T17:32:28;16.80;99.90
22813;DHT22;11573;51.334;3.244;2022-10-17T17:34:55;16.90;99.90
22813;DHT22;11573;51.334;3.244;2022-10-17T17:37:21;16.90;99.90
22813;DHT22;11573;51.334;3.244;2022-10-17T17:39:48;16.80;99.90
22813;DHT22;11573;51.334;3.244;2022-10-17T17:42:15;16.80;99.90
22813;DHT22;11573;51.334;3.244;2022-10-17T17:44:42;16.70;99.90
22813;DHT22;11573;51.334;3.244;2022-10-17T17:47:09;16.70;99.90
22813;DHT22;11573;51.334;3.244;2022-10-17T17:49:36;16.70;99.90
22813;DHT22;11573;51.334;3.244;2022-10-17T17:52:03;16.70;99.90
22813;DHT22;11573;51.334;3.244;2022-10-17T17:54:30;16.70;99.90
22813;DHT22;11573;51.334;3.244;2022-10-17T17:56:57;16.60;99.90
22813;DHT22;11573;51.334;3.244;2022-10-17T17:59:24;16.50;99.90